createdAt,value
2023-04-16T00:02:41.307Z,101979.47
2023-04-16T00:05:42.923Z,101996.69
2023-04-16T00:08:44.348Z,101990.72
2023-04-16T00:11:45.741Z,101994.25
2023-04-16T00:14:47.485Z,101990.06
2023-04-16T00:17:48.966Z,102000.47
2023-04-16T00:20:50.587Z,101995.38
2023-04-16T00:23:51.967Z,102000.59
2023-04-16T00:26:53.439Z,101995.44
2023-04-16T00:29:54.833Z,102004.00
2023-04-16T00:32:56.505Z,102005.66
2023-04-16T00:35:57.970Z,102009.03
2023-04-16T00:38:59.418Z,102002.28
2023-04-16T00:42:00.833Z,102010.00
2023-04-16T00:45:02.355Z,102010.91
2023-04-16T00:48:04.459Z,102002.41
2023-04-16T00:51:07.457Z,102010.09
2023-04-16T00:54:08.880Z,102017.84
2023-04-16T00:57:10.344Z,102017.75
2023-04-16T01:00:12.663Z,102022.88
2023-04-16T01:03:14.649Z,102016.97
2023-04-16T01:06:19.413Z,102015.13
2023-04-16T01:09:20.856Z,102020.38
2023-04-16T01:12:22.382Z,102019.53
2023-04-16T01:15:23.874Z,102022.16
2023-04-16T01:18:26.173Z,102026.50
2023-04-16T01:21:27.616Z,102028.31
2023-04-16T01:24:29.091Z,102030.06
2023-04-16T01:27:30.608Z,102031.84
2023-04-16T01:30:32.028Z,102030.09
2023-04-16T01:33:42.614Z,102031.84
2023-04-16T01:36:46.373Z,102036.16
2023-04-16T01:39:47.814Z,102038.72
2023-04-16T01:42:49.274Z,102036.16
2023-04-16T01:45:51.881Z,102046.41
2023-04-16T01:48:54.166Z,102040.50
2023-04-16T01:51:55.665Z,102046.50
2023-04-16T01:54:57.192Z,102052.47
2023-04-16T01:57:58.625Z,102049.09
2023-04-16T02:01:02.876Z,102049.16
2023-04-16T02:04:04.568Z,102055.16
2023-04-16T02:07:06.724Z,102041.44
2023-04-16T02:10:08.641Z,102049.22
2023-04-16T02:13:10.145Z,102049.19
2023-04-16T02:16:12.063Z,102051.78
2023-04-16T02:19:24.648Z,102058.63
2023-04-16T02:22:26.122Z,102061.22
2023-04-16T02:25:27.564Z,102060.31
2023-04-16T02:28:31.025Z,102070.59
2023-04-16T02:31:32.905Z,102066.38
2023-04-16T02:34:34.527Z,102061.31
2023-04-16T02:37:36.058Z,102066.53
2023-04-16T02:40:37.517Z,102060.59
2023-04-16T02:43:38.946Z,102064.03
2023-04-16T02:46:40.367Z,102059.78
2023-04-16T02:49:41.891Z,102068.34
2023-04-16T02:52:43.368Z,102066.59
2023-04-16T02:55:55.256Z,102067.44
2023-04-16T02:58:56.727Z,102067.44
2023-04-16T03:01:58.554Z,102073.47
2023-04-16T03:05:00.167Z,102077.72
2023-04-16T03:08:01.689Z,102076.00
2023-04-16T03:11:03.100Z,102075.91
2023-04-16T03:14:04.552Z,102081.09
2023-04-16T03:17:05.969Z,102075.09
2023-04-16T03:20:08.472Z,102075.09
2023-04-16T03:23:09.935Z,102078.56
2023-04-16T03:26:11.353Z,102075.19
2023-04-16T03:29:12.855Z,102085.47
2023-04-16T03:32:14.302Z,102087.22
2023-04-16T03:35:15.906Z,102086.38
2023-04-16T03:38:17.524Z,102084.69
2023-04-16T03:41:19.601Z,102085.53
2023-04-16T03:44:21.306Z,102086.31
2023-04-16T03:47:22.818Z,102088.91
2023-04-16T03:50:27.756Z,102090.63
2023-04-16T03:53:29.560Z,102094.00
2023-04-16T03:56:31.016Z,102093.09
2023-04-16T03:59:32.549Z,102096.53
2023-04-16T04:02:34.227Z,102096.41
2023-04-16T04:05:37.532Z,102092.94
2023-04-16T04:08:39.158Z,102097.25
2023-04-16T04:11:42.281Z,102093.75
2023-04-16T04:14:43.916Z,102092.97
2023-04-16T04:17:45.415Z,102093.75
2023-04-16T04:20:47.437Z,102091.22
2023-04-16T04:23:51.152Z,102100.59
2023-04-16T04:26:52.631Z,102096.34
2023-04-16T04:29:54.469Z,102101.47
2023-04-16T04:32:57.079Z,102098.06
2023-04-16T04:35:58.539Z,102104.06
2023-04-16T04:39:00.546Z,102106.56
2023-04-16T04:42:02.907Z,102106.47
2023-04-16T04:45:05.314Z,102114.16
2023-04-16T04:48:08.672Z,102106.41
2023-04-16T04:51:10.182Z,102119.28
2023-04-16T04:54:11.650Z,102124.41
2023-04-16T04:57:13.145Z,102122.75
2023-04-16T05:00:16.260Z,102127.88
2023-04-16T05:03:28.431Z,102123.66
2023-04-16T05:06:30.169Z,102127.81
2023-04-16T05:09:31.602Z,102131.22
2023-04-16T05:12:33.019Z,102132.97
2023-04-16T05:15:34.462Z,102126.06
2023-04-16T05:18:35.966Z,102129.50
2023-04-16T05:21:37.386Z,102131.13
2023-04-16T05:24:38.829Z,102136.28
2023-04-16T05:27:40.709Z,102140.53
2023-04-16T05:30:42.134Z,102144.75
2023-04-16T05:33:43.603Z,102150.75
2023-04-16T05:36:45.102Z,102152.50
2023-04-16T05:39:47.370Z,102150.69
2023-04-16T05:42:48.794Z,102154.94
2023-04-16T05:45:50.396Z,102150.56
2023-04-16T05:48:52.044Z,102156.50
2023-04-16T05:51:53.461Z,102158.22
2023-04-16T05:54:54.855Z,102158.19
2023-04-16T05:57:56.264Z,102167.56
2023-04-16T06:00:57.738Z,102163.28
2023-04-16T06:03:59.218Z,102163.19
2023-04-16T06:07:00.678Z,102164.75
2023-04-16T06:10:02.118Z,102165.66
2023-04-16T06:13:03.571Z,102175.91
2023-04-16T06:16:05.543Z,102180.16
2023-04-16T06:19:07.845Z,102183.50
2023-04-16T06:22:09.823Z,102179.22
2023-04-16T06:25:11.235Z,102183.47
2023-04-16T06:28:12.666Z,102191.94
2023-04-16T06:31:14.292Z,102191.91
2023-04-16T06:34:15.826Z,102199.56
2023-04-16T06:37:17.253Z,102202.16
2023-04-16T06:40:18.622Z,102208.19
2023-04-16T06:43:20.077Z,102207.31
2023-04-16T06:46:21.477Z,102208.13
2023-04-16T06:49:22.916Z,102204.75
2023-04-16T06:52:24.387Z,102205.50
2023-04-16T06:55:25.861Z,102209.78
2023-04-16T06:58:27.256Z,102215.72
2023-04-16T07:01:28.819Z,102209.72
2023-04-16T07:04:30.279Z,102218.22
2023-04-16T07:07:32.568Z,102215.63
2023-04-16T07:10:34.342Z,102213.81
2023-04-16T07:13:35.725Z,102216.34
2023-04-16T07:16:37.174Z,102220.53
2023-04-16T07:19:38.573Z,102224.75
2023-04-16T07:22:39.993Z,102216.06
2023-04-16T07:25:41.365Z,102227.28
2023-04-16T07:28:42.781Z,102233.25
2023-04-16T07:31:45.278Z,102229.72
2023-04-16T07:34:46.697Z,102234.03
2023-04-16T07:37:48.065Z,102235.66
2023-04-16T07:40:49.516Z,102230.34
2023-04-16T07:43:50.883Z,102240.69
2023-04-16T07:46:52.398Z,102236.31
2023-04-16T07:49:53.951Z,102235.38
2023-04-16T07:52:55.409Z,102237.88
2023-04-16T07:55:56.870Z,102245.44
2023-04-16T07:59:02.899Z,102247.94
2023-04-16T08:02:14.181Z,102252.06
2023-04-16T08:05:15.809Z,102248.53
2023-04-16T08:08:17.222Z,102255.09
2023-04-16T08:11:18.616Z,102262.53
2023-04-16T08:14:20.232Z,102249.47
2023-04-16T08:17:21.647Z,102253.66
2023-04-16T08:20:23.104Z,102255.34
2023-04-16T08:23:24.861Z,102264.81
2023-04-16T08:26:26.246Z,102265.47
2023-04-16T08:29:27.679Z,102266.13
2023-04-16T08:32:29.167Z,102271.34
2023-04-16T08:35:30.701Z,102266.13
2023-04-16T08:38:32.086Z,102268.53
2023-04-16T08:41:36.748Z,102276.91
2023-04-16T08:44:45.979Z,102272.53
2023-04-16T08:47:50.475Z,102270.84
2023-04-16T08:50:52.949Z,102276.00
2023-04-16T08:54:03.811Z,102276.31
2023-04-16T08:57:07.002Z,102279.94
2023-04-16T09:00:09.423Z,102279.94
2023-04-16T09:03:11.174Z,102290.44
2023-04-16T09:06:13.278Z,102292.72
2023-04-16T09:09:16.145Z,102291.69
2023-04-16T09:12:18.088Z,102290.75
2023-04-16T09:15:21.092Z,102291.53
2023-04-16T09:18:23.117Z,102286.97
2023-04-16T09:21:25.834Z,102296.94
2023-04-16T09:24:28.824Z,102287.56
2023-04-16T09:27:30.848Z,102306.97
2023-04-16T09:30:32.249Z,102302.59
2023-04-16T09:33:34.992Z,102301.38
2023-04-16T09:36:36.984Z,102305.50
2023-04-16T09:39:38.389Z,102305.13
2023-04-16T09:42:39.799Z,102295.38
2023-04-16T09:45:55.225Z,102304.53
2023-04-16T09:48:56.739Z,102303.09
2023-04-16T09:51:58.146Z,102302.91
2023-04-16T09:54:59.947Z,102310.88
2023-04-16T09:58:02.156Z,102318.31
2023-04-16T10:01:06.786Z,102319.09
2023-04-16T10:04:08.444Z,102311.72
2023-04-16T10:07:09.874Z,102306.97
2023-04-16T10:10:11.529Z,102320.91
2023-04-16T10:13:12.997Z,102318.88
2023-04-16T10:16:14.507Z,102324.91
2023-04-16T10:19:16.862Z,102323.16
2023-04-16T10:22:18.289Z,102321.28
2023-04-16T10:25:20.144Z,102334.06
2023-04-16T10:28:22.450Z,102320.75
2023-04-16T10:31:25.575Z,102335.72
2023-04-16T10:34:27.881Z,102330.44
2023-04-16T10:37:30.439Z,102337.34
2023-04-16T10:40:31.888Z,102340.38
2023-04-16T10:43:39.626Z,102345.78
2023-04-16T10:46:46.976Z,102343.50
2023-04-16T10:49:48.349Z,102345.38
2023-04-16T10:53:09.788Z,102340.13
2023-04-16T10:56:11.575Z,102340.38
2023-04-16T10:59:13.613Z,102344.94
2023-04-16T11:02:19.405Z,102339.00
2023-04-16T11:05:24.566Z,102342.00
2023-04-16T11:08:26.419Z,102353.50
2023-04-16T11:11:37.309Z,102354.31
2023-04-16T11:14:40.431Z,102348.09
2023-04-16T11:17:45.797Z,102343.81
2023-04-16T11:20:47.305Z,102349.03
2023-04-16T11:23:53.441Z,102351.47
2023-04-16T11:26:55.456Z,102363.50
2023-04-16T11:30:00.934Z,102355.59
2023-04-16T11:33:10.106Z,102356.56
2023-04-16T11:36:11.582Z,102354.09
2023-04-16T11:39:13.133Z,102358.28
2023-04-16T11:42:22.649Z,102359.91
2023-04-16T11:45:24.327Z,102353.28
2023-04-16T11:48:26.275Z,102366.25
2023-04-16T11:51:27.698Z,102353.16
2023-04-16T11:54:29.108Z,102366.91
2023-04-16T11:57:31.935Z,102374.56
2023-04-16T12:00:35.194Z,102373.94
2023-04-16T12:03:43.113Z,102387.31
2023-04-16T12:07:13.095Z,102381.50
2023-04-16T12:10:14.637Z,102390.91
2023-04-16T12:13:17.319Z,102389.00
2023-04-16T12:16:19.382Z,102387.00
2023-04-16T12:19:21.672Z,102381.88
2023-04-16T12:22:35.324Z,102386.31
2023-04-16T12:25:38.250Z,102392.41
2023-04-16T12:28:39.635Z,102389.59
2023-04-16T12:31:41.054Z,102387.88
2023-04-16T12:34:51.670Z,102388.78
2023-04-16T12:37:53.049Z,102388.66
2023-04-16T12:40:54.556Z,102385.81
2023-04-16T12:44:07.734Z,102386.78
2023-04-16T12:47:09.203Z,102384.47
2023-04-16T12:50:10.810Z,102384.56
2023-04-16T12:53:12.376Z,102383.53
2023-04-16T12:56:13.833Z,102384.22
2023-04-16T12:59:15.263Z,102383.59
2023-04-16T13:02:16.807Z,102391.09
2023-04-16T13:05:18.479Z,102390.16
2023-04-16T13:08:20.251Z,102390.09
2023-04-16T13:11:21.676Z,102390.00
2023-04-16T13:14:23.113Z,102393.22
2023-04-16T13:17:24.657Z,102387.50
2023-04-16T13:20:26.152Z,102387.97
2023-04-16T13:23:27.617Z,102392.44
2023-04-16T13:26:29.075Z,102389.69
2023-04-16T13:29:30.509Z,102393.03
2023-04-16T13:32:32.023Z,102390.88
2023-04-16T13:35:33.519Z,102389.81
2023-04-16T13:38:34.969Z,102388.16
2023-04-16T13:41:40.316Z,102393.34
2023-04-16T13:44:41.738Z,102393.34
2023-04-16T13:47:43.658Z,102395.06
2023-04-16T13:50:45.149Z,102389.78
2023-04-16T13:53:46.595Z,102385.88
2023-04-16T13:56:50.082Z,102386.50
2023-04-16T13:59:51.645Z,102385.72
2023-04-16T14:02:53.387Z,102384.16
2023-04-16T14:05:54.975Z,102391.84
2023-04-16T14:08:56.413Z,102388.84
2023-04-16T14:11:57.834Z,102391.31
2023-04-16T14:14:59.309Z,102391.56
2023-04-16T14:18:00.887Z,102387.25
2023-04-16T14:21:02.360Z,102388.19
2023-04-16T14:24:04.043Z,102381.16
2023-04-16T14:27:05.457Z,102381.84
2023-04-16T14:30:07.539Z,102375.19
2023-04-16T14:33:08.947Z,102389.16
2023-04-16T14:36:10.381Z,102394.16
2023-04-16T14:39:12.044Z,102389.91
2023-04-16T14:42:13.660Z,102391.75
2023-04-16T14:45:15.107Z,102391.94
2023-04-16T14:48:16.571Z,102394.00
2023-04-16T14:51:18.118Z,102385.97
2023-04-16T14:54:20.016Z,102385.16
2023-04-16T14:57:21.892Z,102393.91
2023-04-16T15:00:23.531Z,102384.88
2023-04-16T15:03:25.184Z,102390.09
2023-04-16T15:06:26.752Z,102392.75
2023-04-16T15:09:29.367Z,102389.56
2023-04-16T15:12:30.791Z,102400.56
2023-04-16T15:15:32.241Z,102404.88
2023-04-16T15:18:33.671Z,102402.84
2023-04-16T15:21:35.105Z,102405.53
2023-04-16T15:24:36.498Z,102409.13
2023-04-16T15:27:37.943Z,102415.31
2023-04-16T15:30:40.306Z,102413.19
2023-04-16T15:33:41.761Z,102422.13
2023-04-16T15:36:43.136Z,102416.34
2023-04-16T15:39:44.566Z,102421.75
2023-04-16T15:42:45.981Z,102420.75
2023-04-16T15:45:47.371Z,102429.69
2023-04-16T15:48:48.810Z,102434.09
2023-04-16T15:51:50.915Z,102433.31
2023-04-16T15:54:52.388Z,102438.25
2023-04-16T15:57:53.852Z,102434.41
2023-04-16T16:00:55.289Z,102427.88
2023-04-16T16:03:56.909Z,102437.34
2023-04-16T16:06:58.470Z,102439.88
2023-04-16T16:09:59.893Z,102444.22
2023-04-16T16:13:01.333Z,102445.94
2023-04-16T16:16:03.608Z,102452.75
2023-04-16T16:19:05.086Z,102448.31
2023-04-16T16:22:06.494Z,102443.53
2023-04-16T16:25:08.236Z,102450.97
2023-04-16T16:28:09.663Z,102452.03
2023-04-16T16:31:11.115Z,102453.06
2023-04-16T16:34:20.083Z,102446.22
2023-04-16T16:37:22.444Z,102442.72
2023-04-16T16:40:23.969Z,102451.72
2023-04-16T16:43:25.394Z,102450.06
2023-04-16T16:46:26.816Z,102450.84
2023-04-16T16:49:28.270Z,102446.75
2023-04-16T16:52:29.736Z,102445.25
2023-04-16T16:55:31.281Z,102451.38
2023-04-16T16:58:32.751Z,102451.19
2023-04-16T17:01:34.539Z,102455.69
2023-04-16T17:04:36.343Z,102450.63
2023-04-16T17:07:38.275Z,102450.81
2023-04-16T17:10:39.857Z,102447.72
2023-04-16T17:13:41.334Z,102459.63
2023-04-16T17:16:42.801Z,102460.66
2023-04-16T17:19:44.342Z,102462.41
2023-04-16T17:22:45.789Z,102462.47
2023-04-16T17:25:47.252Z,102455.81
2023-04-16T17:28:48.667Z,102468.00
2023-04-16T17:31:50.115Z,102465.63
2023-04-16T17:34:51.787Z,102467.41
2023-04-16T17:37:53.182Z,102474.31
2023-04-16T17:40:54.541Z,102478.72
2023-04-16T17:43:55.954Z,102481.34
2023-04-16T17:46:57.340Z,102482.31
2023-04-16T17:49:58.761Z,102484.13
2023-04-16T17:53:00.135Z,102485.91
2023-04-16T17:56:02.272Z,102483.41
2023-04-16T17:59:03.932Z,102491.22
2023-04-16T18:02:05.530Z,102491.28
2023-04-16T18:05:07.986Z,102494.84
2023-04-16T18:08:09.395Z,102494.94
2023-04-16T18:11:10.842Z,102503.56
2023-04-16T18:14:12.444Z,102502.81
2023-04-16T18:17:14.033Z,102513.22
2023-04-16T18:20:16.131Z,102519.25
2023-04-16T18:23:17.599Z,102522.72
2023-04-16T18:26:22.493Z,102532.22
2023-04-16T18:29:25.618Z,102532.38
2023-04-16T18:32:30.766Z,102535.94
2023-04-16T18:35:32.767Z,102542.88
2023-04-16T18:38:34.182Z,102540.31
2023-04-16T18:41:35.592Z,102541.19
2023-04-16T18:44:37.581Z,102548.16
2023-04-16T18:47:39.007Z,102551.69
2023-04-16T18:50:40.403Z,102546.63
2023-04-16T18:53:41.790Z,102557.88
2023-04-16T18:56:43.183Z,102557.13
2023-04-16T18:59:44.639Z,102557.22
2023-04-16T19:02:46.157Z,102563.19
2023-04-16T19:05:47.731Z,102567.50
2023-04-16T19:08:49.173Z,102581.31
2023-04-16T19:11:50.742Z,102577.91
2023-04-16T19:14:52.177Z,102577.97
2023-04-16T19:17:53.599Z,102582.41
2023-04-16T19:21:01.645Z,102579.84
2023-04-16T19:24:03.178Z,102585.81
2023-04-16T19:27:04.631Z,102584.94
2023-04-16T19:30:06.742Z,102593.56
2023-04-16T19:33:08.217Z,102593.69
2023-04-16T19:36:09.654Z,102588.63
2023-04-16T19:39:11.403Z,102593.00
2023-04-16T19:42:12.978Z,102589.63
2023-04-16T19:45:14.485Z,102588.88
2023-04-16T19:48:15.898Z,102589.78
2023-04-16T19:51:17.347Z,102595.81
2023-04-16T19:54:18.754Z,102601.94
2023-04-16T19:57:20.185Z,102601.16
2023-04-16T20:00:21.649Z,102598.69
2023-04-16T20:03:23.181Z,102602.97
2023-04-16T20:06:24.658Z,102598.69
2023-04-16T20:09:26.185Z,102601.28
2023-04-16T20:12:27.636Z,102608.22
2023-04-16T20:15:29.035Z,102605.69
2023-04-16T20:18:31.464Z,102610.03
2023-04-16T20:21:32.860Z,102612.59
2023-04-16T20:24:34.378Z,102619.50
2023-04-16T20:27:35.919Z,102616.84
2023-04-16T20:30:37.869Z,102624.63
2023-04-16T20:33:39.302Z,102626.38
2023-04-16T20:36:41.091Z,102622.91
2023-04-16T20:39:42.584Z,102627.25
2023-04-16T20:42:44.041Z,102627.25
2023-04-16T20:45:45.487Z,102625.59
2023-04-16T20:48:46.905Z,102629.94
2023-04-16T20:51:48.338Z,102627.38
2023-04-16T20:54:49.755Z,102623.03
2023-04-16T20:57:51.289Z,102613.66
2023-04-16T21:00:53.325Z,102621.38
2023-04-16T21:03:54.970Z,102633.44
2023-04-16T21:06:56.602Z,102636.88
2023-04-16T21:09:58.260Z,102637.78
2023-04-16T21:12:59.654Z,102639.50
2023-04-16T21:16:01.141Z,102631.75
2023-04-16T21:19:02.672Z,102634.38
2023-04-16T21:22:04.094Z,102638.72
2023-04-16T21:25:06.087Z,102638.78
2023-04-16T21:28:07.464Z,102638.84
2023-04-16T21:31:09.316Z,102641.41
2023-04-16T21:34:10.715Z,102635.41
2023-04-16T21:37:12.137Z,102631.94
2023-04-16T21:40:13.726Z,102638.81
2023-04-16T21:43:15.090Z,102627.69
2023-04-16T21:46:16.512Z,102632.84
2023-04-16T21:49:18.018Z,102631.94
2023-04-16T21:52:19.441Z,102636.25
2023-04-16T21:55:21.027Z,102635.38
2023-04-16T21:58:22.477Z,102631.91
2023-04-16T22:01:23.941Z,102639.66
2023-04-16T22:04:25.423Z,102638.81
2023-04-16T22:07:26.800Z,102637.16
2023-04-16T22:10:28.213Z,102633.78
2023-04-16T22:13:30.483Z,102636.31
2023-04-16T22:16:31.908Z,102647.50
2023-04-16T22:19:33.337Z,102647.47
2023-04-16T22:22:35.099Z,102641.38
2023-04-16T22:25:36.497Z,102644.91
2023-04-16T22:28:37.863Z,102641.53
2023-04-16T22:31:39.357Z,102639.88
2023-04-16T22:34:41.596Z,102644.13
2023-04-16T22:37:43.022Z,102642.44
2023-04-16T22:40:47.351Z,102646.72
2023-04-16T22:43:50.081Z,102642.50
2023-04-16T22:46:53.305Z,102653.72
2023-04-16T22:49:54.686Z,102641.72
2023-04-16T22:52:56.088Z,102643.47
2023-04-16T22:55:57.485Z,102636.72
2023-04-16T22:58:58.904Z,102638.47
2023-04-16T23:02:00.322Z,102636.75
2023-04-16T23:05:01.780Z,102634.13
2023-04-16T23:08:03.269Z,102635.06
2023-04-16T23:11:04.875Z,102634.22
2023-04-16T23:14:06.252Z,102638.53
2023-04-16T23:17:07.682Z,102636.78
2023-04-16T23:20:09.571Z,102641.09
2023-04-16T23:23:10.986Z,102640.34
2023-04-16T23:26:12.462Z,102646.41
2023-04-16T23:29:13.871Z,102646.38
2023-04-16T23:32:15.332Z,102644.75
2023-04-16T23:35:16.881Z,102649.97
2023-04-16T23:38:18.296Z,102655.97
2023-04-16T23:41:19.752Z,102648.25
2023-04-16T23:44:21.136Z,102642.22
2023-04-16T23:47:22.616Z,102631.09
2023-04-16T23:50:24.076Z,102636.28
2023-04-16T23:53:25.506Z,102641.50
2023-04-16T23:56:26.955Z,102638.94
2023-04-16T23:59:28.368Z,102637.25
